createdAt,value
2018-01-27T00:00:40.024Z,60.18
2018-01-27T00:03:09.060Z,61.14
2018-01-27T00:05:37.990Z,62.27
2018-01-27T00:08:07.086Z,61.85
2018-01-27T00:10:35.976Z,61.32
2018-01-27T00:13:05.596Z,61.94
2018-01-27T00:15:35.248Z,61.56
2018-01-27T00:18:04.982Z,61.24
2018-01-27T00:20:33.584Z,60.42
2018-01-27T00:23:02.375Z,60.05
2018-01-27T00:25:33.141Z,60.61
2018-01-27T00:28:04.123Z,60.08
2018-01-27T00:30:34.821Z,59.30
2018-01-27T00:33:03.901Z,59.59
2018-01-27T00:35:32.792Z,60.20
2018-01-27T00:38:01.554Z,59.78
2018-01-27T00:40:31.330Z,59.63
2018-01-27T00:43:01.380Z,59.23
2018-01-27T00:45:31.372Z,59.04
2018-01-27T00:48:01.002Z,59.05
2018-01-27T00:50:29.820Z,59.54
2018-01-27T00:52:58.924Z,59.94
2018-01-27T00:55:28.732Z,59.52
2018-01-27T00:57:58.532Z,58.85
2018-01-27T01:00:27.983Z,58.91
2018-01-27T01:02:56.862Z,58.52
2018-01-27T01:05:26.659Z,59.17
2018-01-27T01:07:55.452Z,59.06
2018-01-27T01:10:24.229Z,58.63
2018-01-27T01:12:54.058Z,58.30
2018-01-27T01:15:22.564Z,58.43
2018-01-27T01:17:53.027Z,58.75
2018-01-27T01:20:21.822Z,58.78
2018-01-27T01:22:51.636Z,59.44
2018-01-27T01:25:20.336Z,59.77
2018-01-27T01:27:49.285Z,59.98
2018-01-27T01:30:18.404Z,60.23
2018-01-27T01:32:46.816Z,60.53
2018-01-27T01:35:16.824Z,61.03
2018-01-27T01:37:45.980Z,61.47
2018-01-27T01:40:14.713Z,61.25
2018-01-27T01:42:49.540Z,60.87
2018-01-27T01:45:18.323Z,61.33
2018-01-27T01:47:47.408Z,60.76
2018-01-27T01:50:17.765Z,60.29
2018-01-27T01:52:46.916Z,60.96
2018-01-27T01:55:16.438Z,60.70
2018-01-27T01:57:47.044Z,60.10
2018-01-27T02:00:17.778Z,60.29
2018-01-27T02:02:47.742Z,60.42
2018-01-27T02:05:17.001Z,60.03
2018-01-27T02:07:45.899Z,60.06
2018-01-27T02:10:14.599Z,60.25
2018-01-27T02:12:44.035Z,60.16
2018-01-27T02:15:13.800Z,60.97
2018-01-27T02:17:42.579Z,60.55
2018-01-27T02:20:12.065Z,61.03
2018-01-27T02:22:40.727Z,60.46
2018-01-27T02:25:11.227Z,61.05
2018-01-27T02:27:40.154Z,60.08
2018-01-27T02:30:10.311Z,59.93
2018-01-27T02:32:39.550Z,59.90
2018-01-27T02:35:08.830Z,60.07
2018-01-27T02:37:38.781Z,59.78
2018-01-27T02:40:08.873Z,59.80
2018-01-27T02:42:38.083Z,59.96
2018-01-27T02:45:07.209Z,60.20
2018-01-27T02:47:36.360Z,59.82
2018-01-27T02:50:05.257Z,59.48
2018-01-27T02:52:34.642Z,59.43
2018-01-27T02:55:04.782Z,59.53
2018-01-27T02:57:34.918Z,59.12
2018-01-27T03:00:04.298Z,59.33
2018-01-27T03:02:33.283Z,59.45
2018-01-27T03:05:04.120Z,59.23
2018-01-27T03:07:34.416Z,59.07
2018-01-27T03:10:03.743Z,59.19
2018-01-27T03:12:33.541Z,59.51
2018-01-27T03:15:02.656Z,60.23
2018-01-27T03:17:31.576Z,60.16
2018-01-27T03:20:01.962Z,60.08
2018-01-27T03:22:30.990Z,59.60
2018-01-27T03:25:00.483Z,59.14
2018-01-27T03:27:29.340Z,59.33
2018-01-27T03:29:58.907Z,59.10
2018-01-27T03:32:28.150Z,59.13
2018-01-27T03:34:57.709Z,59.42
2018-01-27T03:37:26.950Z,59.48
2018-01-27T03:39:56.958Z,59.91
2018-01-27T03:42:26.920Z,60.45
2018-01-27T03:44:56.515Z,60.73
2018-01-27T03:47:26.971Z,60.63
2018-01-27T03:49:56.448Z,61.01
2018-01-27T03:52:25.585Z,60.96
2018-01-27T03:54:54.423Z,60.79
2018-01-27T03:57:23.765Z,61.12
2018-01-27T03:59:53.683Z,60.27
2018-01-27T04:02:23.556Z,60.99
2018-01-27T04:04:53.714Z,60.63
2018-01-27T04:07:22.871Z,60.81
2018-01-27T04:09:51.991Z,60.65
2018-01-27T04:12:21.809Z,60.72
2018-01-27T04:14:50.343Z,60.52
2018-01-27T04:17:19.723Z,60.50
2018-01-27T04:19:48.787Z,60.59
2018-01-27T04:22:17.482Z,60.09
2018-01-27T04:24:47.607Z,60.85
2018-01-27T04:27:17.218Z,61.20
2018-01-27T04:29:46.176Z,60.59
2018-01-27T04:32:15.958Z,59.99
2018-01-27T04:34:44.423Z,59.94
2018-01-27T04:37:13.149Z,59.58
2018-01-27T04:39:41.915Z,59.59
2018-01-27T04:42:11.904Z,60.30
2018-01-27T04:44:42.050Z,59.64
2018-01-27T04:47:10.529Z,59.92
2018-01-27T04:49:40.337Z,59.40
2018-01-27T04:52:09.470Z,60.07
2018-01-27T04:54:38.220Z,59.32
2018-01-27T04:57:07.452Z,59.89
2018-01-27T04:59:36.820Z,59.53
2018-01-27T05:02:06.483Z,59.25
2018-01-27T05:04:35.160Z,59.49
2018-01-27T05:07:04.536Z,59.29
2018-01-27T05:09:33.291Z,59.27
2018-01-27T05:12:02.610Z,59.33
2018-01-27T05:14:32.298Z,59.06
2018-01-27T05:17:01.471Z,59.70
2018-01-27T05:19:30.217Z,59.44
2018-01-27T05:21:59.594Z,59.28
2018-01-27T05:24:29.529Z,59.58
2018-01-27T05:26:59.431Z,59.71
2018-01-27T05:29:27.808Z,59.09
2018-01-27T05:31:57.331Z,59.33
2018-01-27T05:34:26.164Z,59.63
2018-01-27T05:36:55.015Z,60.53
2018-01-27T05:39:24.365Z,60.51
2018-01-27T05:41:52.834Z,59.55
2018-01-27T05:44:22.544Z,59.98
2018-01-27T05:46:51.808Z,59.67
2018-01-27T05:49:20.651Z,59.24
2018-01-27T05:51:49.648Z,59.06
2018-01-27T05:54:18.878Z,59.19
2018-01-27T05:56:48.923Z,59.09
2018-01-27T05:59:17.634Z,59.06
2018-01-27T06:01:46.375Z,59.33
2018-01-27T06:04:14.857Z,58.96
2018-01-27T06:06:44.634Z,59.07
2018-01-27T06:09:14.251Z,58.79
2018-01-27T06:11:43.129Z,58.41
2018-01-27T06:14:12.312Z,58.81
2018-01-27T06:16:41.208Z,58.93
2018-01-27T06:19:10.806Z,58.70
2018-01-27T06:21:39.912Z,58.92
2018-01-27T06:24:08.448Z,59.65
2018-01-27T06:26:36.826Z,60.10
2018-01-27T06:29:05.529Z,60.23
2018-01-27T06:31:35.308Z,60.74
2018-01-27T06:34:04.519Z,60.90
2018-01-27T06:36:34.442Z,59.72
2018-01-27T06:39:03.438Z,59.50
2018-01-27T06:41:31.853Z,59.50
2018-01-27T06:44:00.482Z,59.62
2018-01-27T06:46:29.325Z,59.93
2018-01-27T06:48:57.714Z,59.68
2018-01-27T06:51:26.600Z,59.43
2018-01-27T06:53:55.298Z,59.03
2018-01-27T06:56:24.278Z,58.98
2018-01-27T06:58:53.548Z,59.35
2018-01-27T07:01:23.500Z,59.11
2018-01-27T07:03:51.955Z,59.45
2018-01-27T07:06:20.752Z,59.51
2018-01-27T07:08:49.355Z,59.65
2018-01-27T07:11:19.248Z,59.26
2018-01-27T07:13:49.021Z,60.23
2018-01-27T07:16:17.442Z,59.48
2018-01-27T07:18:45.992Z,59.20
2018-01-27T07:21:15.051Z,59.05
2018-01-27T07:23:45.173Z,58.91
2018-01-27T07:26:14.300Z,58.93
2018-01-27T07:28:42.847Z,59.08
2018-01-27T07:31:13.260Z,58.13
2018-01-27T07:33:41.929Z,57.99
2018-01-27T07:36:11.373Z,58.19
2018-01-27T07:38:40.291Z,57.63
2018-01-27T07:41:09.834Z,57.11
2018-01-27T07:43:39.165Z,57.34
2018-01-27T07:46:08.277Z,57.15
2018-01-27T07:48:37.229Z,57.11
2018-01-27T07:51:05.754Z,57.49
2018-01-27T07:53:35.140Z,58.38
2018-01-27T07:56:04.845Z,57.61
2018-01-27T07:58:33.772Z,57.69
2018-01-27T08:01:02.368Z,57.07
2018-01-27T08:03:31.725Z,58.19
2018-01-27T08:06:02.093Z,57.89
2018-01-27T08:08:31.588Z,57.98
2018-01-27T08:11:00.007Z,57.25
2018-01-27T08:13:29.365Z,56.60
2018-01-27T08:15:58.238Z,56.09
2018-01-27T08:18:27.364Z,56.18
2018-01-27T08:20:56.300Z,56.04
2018-01-27T08:23:24.674Z,56.63
2018-01-27T08:25:54.521Z,56.48
2018-01-27T08:28:23.320Z,55.52
2018-01-27T08:30:52.537Z,55.02
2018-01-27T08:33:21.644Z,54.66
2018-01-27T08:35:52.673Z,54.89
2018-01-27T08:38:21.822Z,54.54
2018-01-27T08:40:51.056Z,53.85
2018-01-27T08:43:19.889Z,53.21
2018-01-27T08:45:49.064Z,52.50
2018-01-27T08:48:18.874Z,52.60
2018-01-27T08:50:48.806Z,52.84
2018-01-27T08:53:17.242Z,52.82
2018-01-27T08:55:46.089Z,52.03
2018-01-27T08:58:15.199Z,51.94
2018-01-27T09:00:43.947Z,51.95
2018-01-27T09:03:12.432Z,51.88
2018-01-27T09:05:40.790Z,51.05
2018-01-27T09:08:10.023Z,51.50
2018-01-27T09:10:38.388Z,50.76
2018-01-27T09:13:06.748Z,50.16
2018-01-27T09:15:35.242Z,51.11
2018-01-27T09:18:03.595Z,50.20
2018-01-27T09:20:31.965Z,49.49
2018-01-27T09:23:00.351Z,48.18
2018-01-27T09:25:28.852Z,48.90
2018-01-27T09:27:57.317Z,48.53
2018-01-27T09:30:25.724Z,47.92
2018-01-27T09:32:54.123Z,48.46
2018-01-27T09:35:22.481Z,49.06
2018-01-27T09:37:50.840Z,48.43
2018-01-27T09:40:19.222Z,48.54
2018-01-27T09:42:47.580Z,48.58
2018-01-27T09:45:16.051Z,48.62
2018-01-27T09:47:44.487Z,48.90
2018-01-27T09:50:12.842Z,48.21
2018-01-27T09:52:42.106Z,48.32
2018-01-27T09:55:10.476Z,47.81
2018-01-27T09:57:39.268Z,48.03
2018-01-27T10:00:08.119Z,47.75
2018-01-27T10:02:36.492Z,49.33
2018-01-27T10:05:04.877Z,47.75
2018-01-27T10:07:33.231Z,47.22
2018-01-27T10:10:01.606Z,47.87
2018-01-27T10:12:29.995Z,46.73
2018-01-27T10:14:58.359Z,46.18
2018-01-27T10:17:26.724Z,46.86
2018-01-27T10:19:55.079Z,46.04
2018-01-27T10:22:24.000Z,46.52
2018-01-27T10:24:52.404Z,46.37
2018-01-27T10:27:20.784Z,46.72
2018-01-27T10:29:49.161Z,46.58
2018-01-27T10:32:17.517Z,47.22
2018-01-27T10:34:45.882Z,47.85
2018-01-27T10:37:14.808Z,48.66
2018-01-27T10:39:43.228Z,48.64
2018-01-27T10:42:11.996Z,48.88
2018-01-27T10:44:40.352Z,49.80
2018-01-27T10:47:08.708Z,49.45
2018-01-27T10:49:37.089Z,49.63
2018-01-27T10:52:05.475Z,50.13
2018-01-27T10:54:33.857Z,49.28
2018-01-27T10:57:02.203Z,49.93
2018-01-27T10:59:30.960Z,49.50
2018-01-27T11:01:59.334Z,49.60
2018-01-27T11:04:28.104Z,49.09
2018-01-27T11:06:56.580Z,49.02
2018-01-27T11:09:24.932Z,48.57
2018-01-27T11:11:53.351Z,48.04
2018-01-27T11:14:21.711Z,48.85
2018-01-27T11:16:50.068Z,48.74
2018-01-27T11:19:18.448Z,48.75
2018-01-27T11:21:46.802Z,48.67
2018-01-27T11:24:15.644Z,49.23
2018-01-27T11:26:44.040Z,49.86
2018-01-27T11:29:12.398Z,49.05
2018-01-27T11:31:40.887Z,48.17
2018-01-27T11:34:09.301Z,48.14
2018-01-27T11:36:38.084Z,48.35
2018-01-27T11:39:06.442Z,48.50
2018-01-27T11:41:34.798Z,48.59
2018-01-27T11:44:03.167Z,48.42
2018-01-27T11:46:31.534Z,48.30
2018-01-27T11:48:59.910Z,47.64
2018-01-27T11:51:28.280Z,47.63
2018-01-27T11:53:57.020Z,47.65
2018-01-27T11:56:25.400Z,47.49
2018-01-27T11:58:53.747Z,47.50
2018-01-27T12:01:22.142Z,47.38
2018-01-27T12:03:50.525Z,47.26
2018-01-27T12:06:18.891Z,47.30
2018-01-27T12:08:47.264Z,46.67
2018-01-27T12:11:15.683Z,46.74
2018-01-27T12:13:44.071Z,46.80
2018-01-27T12:16:12.490Z,46.92
2018-01-27T12:18:40.930Z,46.71
2018-01-27T12:21:09.369Z,46.18
2018-01-27T12:23:37.722Z,46.79
2018-01-27T12:26:06.084Z,46.58
2018-01-27T12:28:34.918Z,46.74
2018-01-27T12:31:03.276Z,46.81
2018-01-27T12:33:31.683Z,46.90
2018-01-27T12:36:00.047Z,46.72
2018-01-27T12:38:28.400Z,46.47
2018-01-27T12:40:56.827Z,46.80
2018-01-27T12:43:25.421Z,46.34
2018-01-27T12:45:53.900Z,46.49
2018-01-27T12:48:22.373Z,46.29
2018-01-27T12:50:50.822Z,46.15
2018-01-27T12:53:19.184Z,45.85
2018-01-27T12:55:47.953Z,45.91
2018-01-27T12:58:16.728Z,45.64
2018-01-27T13:00:45.183Z,45.54
2018-01-27T13:03:13.619Z,45.76
2018-01-27T13:05:42.452Z,45.16
2018-01-27T13:08:10.833Z,44.94
2018-01-27T13:10:39.210Z,44.04
2018-01-27T13:13:07.589Z,43.59
2018-01-27T13:15:35.967Z,43.40
2018-01-27T13:18:04.424Z,42.23
2018-01-27T13:20:32.844Z,41.98
2018-01-27T13:23:01.304Z,42.31
2018-01-27T13:25:29.706Z,41.97
2018-01-27T13:27:58.066Z,41.67
2018-01-27T13:30:26.427Z,41.90
2018-01-27T13:32:54.932Z,42.69
2018-01-27T13:35:23.303Z,42.01
2018-01-27T13:37:51.656Z,41.26
2018-01-27T13:40:20.036Z,41.26
2018-01-27T13:42:48.397Z,41.27
2018-01-27T13:45:17.152Z,41.37
2018-01-27T13:47:45.544Z,41.55
2018-01-27T13:50:14.311Z,41.84
2018-01-27T13:52:43.581Z,41.90
2018-01-27T13:55:11.954Z,42.81
2018-01-27T13:57:40.351Z,43.30
2018-01-27T14:00:08.731Z,44.33
2018-01-27T14:02:37.083Z,43.76
2018-01-27T14:05:05.492Z,44.58
2018-01-27T14:07:33.864Z,44.63
2018-01-27T14:10:02.352Z,44.78
2018-01-27T14:12:30.722Z,44.81
2018-01-27T14:14:59.085Z,45.34
2018-01-27T14:17:27.442Z,45.73
2018-01-27T14:19:55.865Z,46.03
2018-01-27T14:22:24.300Z,46.35
2018-01-27T14:24:53.062Z,46.00
2018-01-27T14:27:21.416Z,46.20
2018-01-27T14:29:49.789Z,46.29
2018-01-27T14:32:18.270Z,46.22
2018-01-27T14:34:46.622Z,46.13
2018-01-27T14:37:15.012Z,45.59
2018-01-27T14:39:43.373Z,45.59
2018-01-27T14:42:11.886Z,45.38
2018-01-27T14:44:40.247Z,45.39
2018-01-27T14:47:08.603Z,45.21
2018-01-27T14:49:36.975Z,45.99
2018-01-27T14:52:05.737Z,46.92
2018-01-27T14:54:34.093Z,47.46
2018-01-27T14:57:02.484Z,47.72
2018-01-27T14:59:30.836Z,48.00
2018-01-27T15:01:59.216Z,48.50
2018-01-27T15:04:27.577Z,49.50
2018-01-27T15:06:55.983Z,49.87
2018-01-27T15:09:24.338Z,50.27
2018-01-27T15:11:52.742Z,49.63
2018-01-27T15:14:21.225Z,49.63
2018-01-27T15:16:49.575Z,49.78
2018-01-27T15:19:17.982Z,49.41
2018-01-27T15:21:46.505Z,49.33
2018-01-27T15:24:15.279Z,48.84
2018-01-27T15:26:43.667Z,48.96
2018-01-27T15:29:12.019Z,49.57
2018-01-27T15:31:40.378Z,50.04
2018-01-27T15:34:08.842Z,50.59
2018-01-27T15:36:37.265Z,50.37
2018-01-27T15:39:05.718Z,51.36
2018-01-27T15:41:34.109Z,50.96
2018-01-27T15:44:02.583Z,51.68
2018-01-27T15:46:30.942Z,50.99
2018-01-27T15:48:59.346Z,50.83
2018-01-27T15:51:27.737Z,50.86
2018-01-27T15:53:56.083Z,51.34
2018-01-27T15:56:24.485Z,52.12
2018-01-27T15:58:52.845Z,52.17
2018-01-27T16:01:21.194Z,51.69
2018-01-27T16:03:49.714Z,51.76
2018-01-27T16:06:18.084Z,51.76
2018-01-27T16:08:46.485Z,52.64
2018-01-27T16:11:14.840Z,52.11
2018-01-27T16:13:43.199Z,51.81
2018-01-27T16:16:11.608Z,52.61
2018-01-27T16:18:40.083Z,52.49
2018-01-27T16:21:08.433Z,52.88
2018-01-27T16:23:36.862Z,52.36
2018-01-27T16:26:05.236Z,53.08
2018-01-27T16:28:33.720Z,53.11
2018-01-27T16:31:02.072Z,53.29
2018-01-27T16:33:30.422Z,53.32
2018-01-27T16:35:59.268Z,53.96
2018-01-27T16:38:27.735Z,53.89
2018-01-27T16:40:56.103Z,54.34
2018-01-27T16:43:24.459Z,54.27
2018-01-27T16:45:52.824Z,54.14
2018-01-27T16:48:21.585Z,54.08
2018-01-27T16:50:50.038Z,55.25
2018-01-27T16:53:18.566Z,54.35
2018-01-27T16:55:47.414Z,54.39
2018-01-27T16:58:15.791Z,55.01
2018-01-27T17:00:44.165Z,55.04
2018-01-27T17:03:12.528Z,55.56
2018-01-27T17:05:40.942Z,55.38
2018-01-27T17:08:09.319Z,55.60
2018-01-27T17:10:37.687Z,56.34
2018-01-27T17:13:06.056Z,55.85
2018-01-27T17:15:34.450Z,55.22
2018-01-27T17:18:02.938Z,55.41
2018-01-27T17:20:31.495Z,55.57
2018-01-27T17:22:59.967Z,55.87
2018-01-27T17:25:28.335Z,56.29
2018-01-27T17:27:56.683Z,56.57
2018-01-27T17:30:25.434Z,56.36
2018-01-27T17:32:53.789Z,57.42
2018-01-27T17:35:22.316Z,56.92
2018-01-27T17:37:50.681Z,56.77
2018-01-27T17:40:19.067Z,57.62
2018-01-27T17:42:47.413Z,57.49
2018-01-27T17:45:15.771Z,58.93
2018-01-27T17:47:44.140Z,57.90
2018-01-27T17:50:12.879Z,57.93
2018-01-27T17:52:41.325Z,57.54
2018-01-27T17:55:09.682Z,58.11
2018-01-27T17:57:38.522Z,58.41
2018-01-27T18:00:06.879Z,59.01
2018-01-27T18:02:35.283Z,58.61
2018-01-27T18:05:03.644Z,58.49
2018-01-27T18:07:32.035Z,58.31
2018-01-27T18:10:00.477Z,58.18
2018-01-27T18:12:28.814Z,58.54
2018-01-27T18:14:57.180Z,58.26
2018-01-27T18:17:25.664Z,58.72
2018-01-27T18:19:54.027Z,58.88
2018-01-27T18:22:22.419Z,58.41
2018-01-27T18:24:50.783Z,58.05
2018-01-27T18:27:19.126Z,58.64
2018-01-27T18:29:47.576Z,59.11
2018-01-27T18:32:15.929Z,59.79
2018-01-27T18:34:44.350Z,59.91
2018-01-27T18:37:13.187Z,59.01
2018-01-27T18:39:41.576Z,59.99
2018-01-27T18:42:09.951Z,60.45
2018-01-27T18:44:38.333Z,61.82
2018-01-27T18:47:06.712Z,62.03
2018-01-27T18:49:35.144Z,61.63
2018-01-27T18:52:03.888Z,61.16
2018-01-27T18:54:32.246Z,61.44
2018-01-27T18:57:00.604Z,61.58
2018-01-27T18:59:29.027Z,61.33
2018-01-27T19:01:57.389Z,61.55
2018-01-27T19:04:25.745Z,61.50
2018-01-27T19:06:54.116Z,61.79
2018-01-27T19:09:22.472Z,60.96
2018-01-27T19:11:51.242Z,60.72
2018-01-27T19:14:19.711Z,62.09
2018-01-27T19:16:48.085Z,62.77
2018-01-27T19:19:16.435Z,61.30
2018-01-27T19:21:44.787Z,61.71
2018-01-27T19:24:13.594Z,62.01
2018-01-27T19:26:41.942Z,62.11
2018-01-27T19:29:10.693Z,63.31
2018-01-27T19:31:39.176Z,62.98
2018-01-27T19:34:07.706Z,63.40
2018-01-27T19:36:36.092Z,62.77
2018-01-27T19:39:04.645Z,62.90
2018-01-27T19:41:33.500Z,62.25
2018-01-27T19:44:01.876Z,62.59
2018-01-27T19:46:30.250Z,62.57
2018-01-27T19:48:58.642Z,62.91
2018-01-27T19:51:26.988Z,62.28
2018-01-27T19:53:55.344Z,63.21
2018-01-27T19:56:24.136Z,63.25
2018-01-27T19:58:52.876Z,64.55
2018-01-27T20:01:21.347Z,64.53
2018-01-27T20:03:49.695Z,64.12
2018-01-27T20:06:18.107Z,64.10
2018-01-27T20:08:48.200Z,64.11
2018-01-27T20:11:16.551Z,64.32
2018-01-27T20:13:45.402Z,64.08
2018-01-27T20:16:13.777Z,63.99
2018-01-27T20:18:42.158Z,64.27
2018-01-27T20:21:11.156Z,64.16
2018-01-27T20:23:39.677Z,64.75
2018-01-27T20:26:08.591Z,64.38
2018-01-27T20:28:37.124Z,64.64
2018-01-27T20:31:05.475Z,64.72
2018-01-27T20:33:33.855Z,64.19
2018-01-27T20:36:02.292Z,63.95
2018-01-27T20:38:31.131Z,63.86
2018-01-27T20:40:59.494Z,64.03
2018-01-27T20:43:27.852Z,64.34
2018-01-27T20:45:56.219Z,65.31
2018-01-27T20:48:24.958Z,65.27
2018-01-27T20:50:53.336Z,65.10
2018-01-27T20:53:21.675Z,65.08
2018-01-27T20:55:50.030Z,65.44
2018-01-27T20:58:18.787Z,65.03
2018-01-27T21:00:47.693Z,64.76
2018-01-27T21:03:16.197Z,64.37
2018-01-27T21:05:45.377Z,64.92
2018-01-27T21:08:13.996Z,64.61
2018-01-27T21:10:43.695Z,64.67
2018-01-27T21:13:14.575Z,64.81
2018-01-27T21:15:43.094Z,65.64
2018-01-27T21:18:12.306Z,64.57
2018-01-27T21:20:43.386Z,64.61
2018-01-27T21:23:12.162Z,64.34
2018-01-27T21:25:41.873Z,65.15
2018-01-27T21:28:10.483Z,66.93
2018-01-27T21:30:39.444Z,66.74
2018-01-27T21:33:07.998Z,66.06
2018-01-27T21:35:36.610Z,65.87
2018-01-27T21:38:05.953Z,66.94
2018-01-27T21:40:34.417Z,67.12
2018-01-27T21:43:03.928Z,65.45
2018-01-27T21:45:34.311Z,64.49
2018-01-27T21:48:03.375Z,65.67
2018-01-27T21:50:32.412Z,63.99
2018-01-27T21:53:01.970Z,64.91
2018-01-27T21:55:31.171Z,64.85
2018-01-27T21:57:59.549Z,64.79
2018-01-27T22:00:28.321Z,64.17
2018-01-27T22:02:57.056Z,64.18
2018-01-27T22:05:26.825Z,64.24
2018-01-27T22:07:55.202Z,63.30
2018-01-27T22:10:24.123Z,64.54
2018-01-27T22:12:53.088Z,63.92
2018-01-27T22:15:22.152Z,64.79
2018-01-27T22:17:51.132Z,63.87
2018-01-27T22:20:20.453Z,63.21
2018-01-27T22:22:49.281Z,64.01
2018-01-27T22:25:17.737Z,62.82
2018-01-27T22:27:46.492Z,62.10
2018-01-27T22:30:15.421Z,61.59
2018-01-27T22:32:44.493Z,61.42
2018-01-27T22:35:14.267Z,61.01
2018-01-27T22:37:43.171Z,61.11
2018-01-27T22:40:12.206Z,62.24
2018-01-27T22:42:40.761Z,61.68
2018-01-27T22:45:09.826Z,60.70
2018-01-27T22:47:38.933Z,60.49
2018-01-27T22:50:07.713Z,61.02
2018-01-27T22:52:38.250Z,60.37
2018-01-27T22:55:07.392Z,60.65
2018-01-27T22:57:36.251Z,60.83
2018-01-27T23:00:04.878Z,60.35
2018-01-27T23:02:33.364Z,60.26
2018-01-27T23:05:01.734Z,60.37
2018-01-27T23:07:30.754Z,60.63
2018-01-27T23:10:00.073Z,60.75
2018-01-27T23:12:29.560Z,60.53
2018-01-27T23:14:58.447Z,60.91
2018-01-27T23:17:27.339Z,60.95
2018-01-27T23:19:56.221Z,59.81
2018-01-27T23:22:24.888Z,59.42
2018-01-27T23:24:54.127Z,60.36
2018-01-27T23:27:23.011Z,60.37
2018-01-27T23:29:51.954Z,60.36
2018-01-27T23:32:20.790Z,59.62
2018-01-27T23:34:50.379Z,59.39
2018-01-27T23:37:19.688Z,59.97
2018-01-27T23:39:48.357Z,59.44
2018-01-27T23:42:17.256Z,59.78
2018-01-27T23:44:46.033Z,59.50
2018-01-27T23:47:14.417Z,58.87
2018-01-27T23:49:44.081Z,58.42
2018-01-27T23:52:12.929Z,58.25
2018-01-27T23:54:41.718Z,58.52
2018-01-27T23:57:10.506Z,58.41
2018-01-27T23:59:38.867Z,58.44
